createdAt,value
2018-11-21T00:00:26.877Z,64.73
2018-11-21T00:05:33.081Z,64.50
2018-11-21T00:10:34.706Z,64.64
2018-11-21T00:15:38.541Z,64.89
2018-11-21T00:20:42.251Z,64.84
2018-11-21T00:25:46.092Z,64.55
2018-11-21T00:30:49.802Z,64.78
2018-11-21T00:35:53.574Z,64.57
2018-11-21T00:40:57.510Z,64.75
2018-11-21T00:46:01.314Z,64.58
2018-11-21T00:51:05.181Z,64.64
2018-11-21T00:56:09.092Z,64.46
2018-11-21T01:01:12.958Z,64.64
2018-11-21T01:06:16.797Z,64.50
2018-11-21T01:11:20.605Z,64.42
2018-11-21T01:16:24.315Z,64.51
2018-11-21T01:21:28.035Z,64.52
2018-11-21T01:26:31.723Z,64.52
2018-11-21T01:31:35.569Z,64.56
2018-11-21T01:36:39.246Z,64.51
2018-11-21T01:41:43.859Z,64.43
2018-11-21T01:46:48.559Z,64.63
2018-11-21T01:51:50.145Z,64.54
2018-11-21T01:56:53.931Z,64.79
2018-11-21T02:01:59.618Z,64.56
2018-11-21T02:07:01.553Z,64.50
2018-11-21T02:12:05.279Z,64.63
2018-11-21T02:17:10.976Z,64.68
2018-11-21T02:22:12.637Z,64.30
2018-11-21T02:27:16.312Z,64.26
2018-11-21T02:32:20.002Z,64.33
2018-11-21T02:37:23.755Z,64.26
2018-11-21T02:42:29.323Z,64.23
2018-11-21T02:47:31.026Z,64.38
2018-11-21T02:52:34.799Z,64.63
2018-11-21T02:57:39.982Z,65.01
2018-11-21T03:02:42.201Z,64.82
2018-11-21T03:07:59.310Z,64.68
2018-11-21T03:13:02.989Z,64.47
2018-11-21T03:18:06.828Z,64.53
2018-11-21T03:23:10.591Z,64.90
2018-11-21T03:28:14.266Z,65.11
2018-11-21T03:33:18.077Z,65.35
2018-11-21T03:38:21.856Z,65.22
2018-11-21T03:43:27.054Z,65.37
2018-11-21T03:48:29.370Z,65.16
2018-11-21T03:53:32.986Z,65.92
2018-11-21T03:58:38.663Z,65.73
2018-11-21T04:03:40.514Z,65.61
2018-11-21T04:08:44.297Z,65.81
2018-11-21T04:13:47.919Z,66.56
2018-11-21T04:18:56.014Z,66.35
2018-11-21T04:24:01.034Z,66.80
2018-11-21T04:29:03.255Z,66.94
2018-11-21T04:34:07.015Z,66.94
2018-11-21T04:39:11.758Z,67.23
2018-11-21T04:44:15.404Z,67.22
2018-11-21T04:49:19.088Z,67.49
2018-11-21T04:54:22.673Z,67.56
2018-11-21T04:59:26.544Z,67.80
2018-11-21T05:04:30.524Z,67.94
2018-11-21T05:09:34.388Z,67.91
2018-11-21T05:14:39.409Z,68.30
2018-11-21T05:19:41.914Z,68.54
2018-11-21T05:24:45.727Z,68.67
2018-11-21T05:29:49.646Z,69.08
2018-11-21T05:34:54.847Z,68.88
2018-11-21T05:39:57.312Z,68.53
2018-11-21T05:45:01.218Z,68.41
2018-11-21T05:50:07.426Z,68.24
2018-11-21T05:55:10.101Z,68.26
2018-11-21T06:00:14.690Z,68.33
2018-11-21T06:05:18.422Z,68.33
2018-11-21T06:10:24.192Z,68.24
2018-11-21T06:15:26.059Z,68.67
2018-11-21T06:20:29.764Z,68.36
2018-11-21T06:25:33.659Z,68.29
2018-11-21T06:30:40.297Z,68.59
2018-11-21T06:35:45.331Z,68.77
2018-11-21T06:40:47.993Z,68.50
2018-11-21T06:45:54.064Z,68.48
2018-11-21T06:50:57.785Z,68.67
2018-11-21T06:56:00.286Z,68.56
2018-11-21T07:01:05.442Z,68.57
2018-11-21T07:06:09.900Z,68.48
2018-11-21T07:11:12.812Z,68.54
2018-11-21T07:16:17.035Z,68.56
2018-11-21T07:21:23.264Z,68.77
2018-11-21T07:26:26.314Z,68.32
2018-11-21T07:31:30.980Z,68.14
2018-11-21T07:36:35.125Z,68.33
2018-11-21T07:41:38.517Z,68.13
2018-11-21T07:46:42.269Z,68.02
2018-11-21T07:51:46.494Z,68.08
2018-11-21T07:57:42.346Z,67.95
2018-11-21T08:02:44.630Z,67.93
2018-11-21T08:07:56.525Z,68.01
2018-11-21T08:13:19.022Z,68.75
2018-11-21T08:18:56.756Z,69.24
2018-11-21T08:24:11.044Z,69.11
2018-11-21T08:29:14.660Z,68.58
2018-11-21T08:34:18.227Z,68.58
2018-11-21T08:39:21.860Z,68.21
2018-11-21T08:44:25.526Z,68.15
2018-11-21T08:49:30.223Z,68.25
2018-11-21T08:54:32.809Z,68.23
2018-11-21T08:59:36.238Z,68.12
2018-11-21T09:04:40.007Z,68.44
2018-11-21T09:09:43.705Z,68.77
2018-11-21T09:14:47.289Z,68.68
2018-11-21T09:19:51.417Z,68.20
2018-11-21T09:24:54.975Z,68.00
2018-11-21T09:29:58.530Z,68.17
2018-11-21T09:35:12.601Z,67.92
2018-11-21T09:40:17.847Z,68.24
2018-11-21T09:45:22.553Z,68.13
2018-11-21T09:50:28.247Z,67.59
2018-11-21T09:55:31.988Z,67.74
2018-11-21T10:01:12.482Z,67.75
2018-11-21T10:06:24.408Z,67.82
2018-11-21T10:11:32.112Z,68.01
2018-11-21T10:16:36.004Z,68.26
2018-11-21T10:21:40.113Z,68.20
2018-11-21T10:26:44.014Z,69.00
2018-11-21T10:31:49.114Z,68.77
2018-11-21T10:36:51.592Z,69.01
2018-11-21T10:41:57.433Z,68.78
2018-11-21T10:47:03.208Z,68.89
2018-11-21T10:52:06.793Z,69.10
2018-11-21T10:57:12.774Z,68.66
2018-11-21T11:02:25.532Z,68.39
2018-11-21T11:19:27.372Z,68.62
2018-11-21T11:24:53.682Z,67.95
2018-11-21T11:30:19.413Z,68.00
2018-11-21T11:35:45.598Z,67.22
2018-11-21T11:41:12.354Z,66.89
2018-11-21T11:46:32.875Z,66.92
2018-11-21T11:51:52.172Z,67.04
2018-11-21T11:57:13.598Z,66.73
2018-11-21T12:02:38.849Z,67.16
2018-11-21T12:08:01.679Z,66.46
2018-11-21T12:13:41.190Z,66.60
2018-11-21T12:19:14.047Z,66.72
2018-11-21T12:24:35.464Z,66.95
2018-11-21T12:30:03.315Z,66.89
2018-11-21T12:35:37.788Z,67.02
2018-11-21T12:41:10.464Z,66.81
2018-11-21T12:46:47.629Z,67.25
2018-11-21T12:52:22.379Z,67.00
2018-11-21T12:57:43.969Z,66.70
2018-11-21T13:03:01.200Z,67.23
2018-11-21T13:08:27.945Z,66.54
2018-11-21T13:13:53.422Z,66.74
2018-11-21T13:19:23.110Z,66.49
2018-11-21T13:24:44.773Z,67.08
2018-11-21T13:29:56.005Z,67.25
2018-11-21T13:35:07.006Z,67.46
2018-11-21T13:40:30.734Z,67.69
2018-11-21T13:45:52.198Z,67.90
2018-11-21T13:51:15.364Z,68.07
2018-11-21T13:56:17.874Z,67.88
2018-11-21T14:01:23.269Z,68.18
2018-11-21T14:06:29.684Z,68.17
2018-11-21T14:11:31.691Z,68.20
2018-11-21T14:16:37.761Z,68.44
2018-11-21T14:21:42.814Z,68.13
2018-11-21T14:26:55.397Z,67.96
2018-11-21T14:31:55.287Z,67.64
2018-11-21T14:37:03.837Z,67.38
2018-11-21T14:42:08.130Z,67.29
2018-11-21T14:47:08.820Z,67.84
2018-11-21T14:52:14.091Z,67.67
2018-11-21T14:57:15.550Z,67.53
2018-11-21T15:02:17.845Z,67.54
2018-11-21T15:07:23.501Z,67.93
2018-11-21T15:12:25.213Z,67.74
2018-11-21T15:17:31.077Z,67.56
2018-11-21T15:22:44.519Z,67.93
2018-11-21T15:27:48.164Z,67.82
2018-11-21T15:32:53.088Z,67.61
2018-11-21T15:37:57.516Z,67.29
2018-11-21T15:42:59.107Z,67.77
2018-11-21T15:48:03.232Z,67.47
2018-11-21T15:53:07.059Z,67.51
2018-11-21T15:58:10.643Z,67.47
2018-11-21T16:03:14.401Z,67.38
2018-11-21T16:08:22.112Z,67.61
2018-11-21T16:13:24.572Z,67.33
2018-11-21T16:18:28.691Z,67.52
2018-11-21T16:23:32.478Z,67.30
2018-11-21T16:28:36.288Z,67.28
2018-11-21T16:33:39.847Z,67.49
2018-11-21T16:38:43.410Z,67.37
2018-11-21T16:43:48.064Z,67.38
2018-11-21T16:48:51.776Z,67.59
2018-11-21T16:53:55.476Z,67.61
2018-11-21T16:59:02.910Z,67.58
2018-11-21T17:04:12.873Z,67.73
2018-11-21T17:09:17.525Z,67.40
2018-11-21T17:14:21.066Z,67.41
2018-11-21T17:19:25.215Z,67.39
2018-11-21T17:24:29.261Z,67.34
2018-11-21T17:29:34.960Z,67.52
2018-11-21T17:34:40.762Z,67.56
2018-11-21T17:39:46.847Z,67.27
2018-11-21T17:50:15.482Z,67.39
2018-11-21T17:55:21.125Z,67.30
2018-11-21T18:00:26.204Z,67.29
2018-11-21T18:05:31.791Z,67.41
2018-11-21T18:10:36.922Z,67.21
2018-11-21T18:15:40.757Z,67.20
2018-11-21T18:20:44.397Z,67.25
2018-11-21T18:25:48.249Z,67.22
2018-11-21T18:30:51.998Z,67.38
2018-11-21T18:42:23.537Z,67.29
2018-11-21T18:47:25.972Z,67.49
2018-11-21T18:52:29.646Z,67.26
2018-11-21T18:58:15.347Z,67.59
2018-11-21T19:03:19.303Z,67.48
2018-11-21T19:08:23.997Z,67.53
2018-11-21T19:13:28.398Z,67.24
2018-11-21T19:18:32.208Z,67.25
2018-11-21T19:23:35.877Z,67.04
2018-11-21T19:28:39.550Z,66.92
2018-11-21T19:33:43.472Z,67.33
2018-11-21T19:38:47.144Z,67.97
2018-11-21T19:43:50.886Z,68.27
2018-11-21T19:48:54.482Z,68.38
2018-11-21T19:53:58.357Z,68.54
2018-11-21T19:59:01.972Z,68.86
2018-11-21T20:04:05.722Z,69.07
2018-11-21T20:09:12.163Z,69.13
2018-11-21T20:14:16.688Z,69.34
2018-11-21T20:19:24.397Z,69.58
2018-11-21T20:24:31.026Z,69.81
2018-11-21T20:29:34.736Z,69.90
2018-11-21T20:34:39.280Z,70.47
2018-11-21T20:39:46.826Z,70.20
2018-11-21T20:44:46.348Z,70.59
2018-11-21T20:49:50.106Z,70.49
2018-11-21T20:54:59.065Z,70.92
2018-11-21T21:00:00.429Z,70.83
2018-11-21T21:05:04.376Z,70.24
2018-11-21T21:10:09.307Z,71.02
2018-11-21T21:15:12.965Z,71.10
2018-11-21T21:20:18.428Z,70.88
2018-11-21T21:25:23.758Z,70.90
2018-11-21T21:30:31.261Z,71.28
2018-11-21T21:35:33.448Z,71.70
2018-11-21T21:40:37.125Z,71.70
2018-11-21T21:45:40.993Z,71.70
2018-11-21T21:50:44.621Z,71.44
2018-11-21T21:55:48.182Z,71.26
2018-11-21T22:00:51.812Z,70.98
2018-11-21T22:05:55.391Z,71.55
2018-11-21T22:10:59.097Z,71.04
2018-11-21T22:16:02.725Z,70.96
2018-11-21T22:21:06.611Z,71.28
2018-11-21T22:26:10.181Z,71.35
2018-11-21T22:31:13.852Z,71.51
2018-11-21T22:36:17.625Z,71.25
2018-11-21T22:41:22.378Z,71.01
2018-11-21T22:46:24.996Z,70.83
2018-11-21T22:51:29.636Z,70.93
2018-11-21T22:56:32.188Z,71.21
2018-11-21T23:01:40.801Z,71.43
2018-11-21T23:06:45.390Z,71.55
2018-11-21T23:12:03.768Z,71.26
2018-11-21T23:30:16.974Z,71.25
2018-11-21T23:36:28.005Z,71.40
2018-11-21T23:42:07.058Z,71.03
2018-11-21T23:47:51.754Z,71.01
2018-11-21T23:53:23.800Z,71.66
2018-11-21T23:58:53.993Z,71.72
